sensor_id;sensor_type;location;lat;lon;timestamp;noise_LAeq;noise_LA_min;noise_LA_max;noise_LA01;noise_LA95
70454;Laerm;57915;47.174;14.680;2023-11-22T00:00:02;41.20;38.40;43.56;;
70454;Laerm;57915;47.174;14.680;2023-11-22T00:01:04;42.35;39.70;44.87;;
70454;Laerm;57915;47.174;14.680;2023-11-22T00:02:05;42.87;39.60;45.32;;
70454;Laerm;57915;47.174;14.680;2023-11-22T00:03:06;41.35;38.95;44.20;;
70454;Laerm;57915;47.174;14.680;2023-11-22T00:04:07;42.41;39.57;44.54;;
70454;Laerm;57915;47.174;14.680;2023-11-22T00:05:08;41.87;39.29;44.67;;
70454;Laerm;57915;47.174;14.680;2023-11-22T00:06:11;41.83;38.86;45.86;;
70454;Laerm;57915;47.174;14.680;2023-11-22T00:07:12;41.17;38.84;43.76;;
70454;Laerm;57915;47.174;14.680;2023-11-22T00:08:13;41.11;38.66;43.27;;
70454;Laerm;57915;47.174;14.680;2023-11-22T00:09:14;42.32;39.42;44.90;;
70454;Laerm;57915;47.174;14.680;2023-11-22T00:10:14;43.54;40.82;46.03;;
70454;Laerm;57915;47.174;14.680;2023-11-22T00:11:16;44.12;41.23;50.15;;
70454;Laerm;57915;47.174;14.680;2023-11-22T00:12:16;42.59;39.54;45.61;;
70454;Laerm;57915;47.174;14.680;2023-11-22T00:13:17;43.38;40.73;46.12;;
70454;Laerm;57915;47.174;14.680;2023-11-22T00:14:20;45.89;41.56;49.24;;
70454;Laerm;57915;47.174;14.680;2023-11-22T00:15:21;44.77;40.59;48.42;;
70454;Laerm;57915;47.174;14.680;2023-11-22T00:16:23;42.09;40.08;44.22;;
70454;Laerm;57915;47.174;14.680;2023-11-22T00:17:23;43.22;40.77;45.33;;
70454;Laerm;57915;47.174;14.680;2023-11-22T00:18:25;43.45;40.60;46.04;;
70454;Laerm;57915;47.174;14.680;2023-11-22T00:19:26;43.14;40.87;45.86;;
70454;Laerm;57915;47.174;14.680;2023-11-22T00:20:27;42.80;40.02;45.06;;
70454;Laerm;57915;47.174;14.680;2023-11-22T00:21:28;41.99;39.07;45.12;;
70454;Laerm;57915;47.174;14.680;2023-11-22T00:22:29;42.41;39.04;44.87;;
70454;Laerm;57915;47.174;14.680;2023-11-22T00:23:32;43.49;39.70;47.21;;
70454;Laerm;57915;47.174;14.680;2023-11-22T00:24:32;53.27;41.99;65.43;;
70454;Laerm;57915;47.174;14.680;2023-11-22T00:25:34;46.27;42.67;55.99;;
70454;Laerm;57915;47.174;14.680;2023-11-22T00:26:34;43.56;39.84;48.77;;
70454;Laerm;57915;47.174;14.680;2023-11-22T00:27:36;41.84;38.68;44.70;;
70454;Laerm;57915;47.174;14.680;2023-11-22T00:28:37;42.32;39.64;45.89;;
70454;Laerm;57915;47.174;14.680;2023-11-22T00:29:40;42.89;39.43;46.60;;
70454;Laerm;57915;47.174;14.680;2023-11-22T00:30:41;42.33;39.77;45.82;;
70454;Laerm;57915;47.174;14.680;2023-11-22T00:31:42;41.62;38.96;45.56;;
70454;Laerm;57915;47.174;14.680;2023-11-22T00:32:44;42.00;39.07;44.59;;
70454;Laerm;57915;47.174;14.680;2023-11-22T00:33:46;42.73;39.20;51.10;;
70454;Laerm;57915;47.174;14.680;2023-11-22T00:34:46;54.53;39.41;67.35;;
70454;Laerm;57915;47.174;14.680;2023-11-22T00:35:48;41.99;39.26;51.90;;
70454;Laerm;57915;47.174;14.680;2023-11-22T00:36:50;42.02;38.46;44.84;;
70454;Laerm;57915;47.174;14.680;2023-11-22T00:37:52;42.10;39.42;44.91;;
70454;Laerm;57915;47.174;14.680;2023-11-22T00:38:52;55.73;39.50;69.13;;
70454;Laerm;57915;47.174;14.680;2023-11-22T00:39:53;44.25;40.99;47.79;;
70454;Laerm;57915;47.174;14.680;2023-11-22T00:40:54;46.92;43.05;50.07;;
70454;Laerm;57915;47.174;14.680;2023-11-22T00:41:55;46.01;40.20;51.39;;
70454;Laerm;57915;47.174;14.680;2023-11-22T00:42:56;44.48;40.89;47.69;;
70454;Laerm;57915;47.174;14.680;2023-11-22T00:43:58;43.29;39.61;46.70;;
70454;Laerm;57915;47.174;14.680;2023-11-22T00:44:59;42.65;40.09;45.23;;
70454;Laerm;57915;47.174;14.680;2023-11-22T00:46:01;54.82;40.47;67.63;;
70454;Laerm;57915;47.174;14.680;2023-11-22T00:47:01;41.59;37.88;44.61;;
70454;Laerm;57915;47.174;14.680;2023-11-22T00:48:03;42.96;39.99;45.77;;
70454;Laerm;57915;47.174;14.680;2023-11-22T00:49:04;53.50;39.99;67.86;;
70454;Laerm;57915;47.174;14.680;2023-11-22T00:50:06;52.59;39.82;67.44;;
70454;Laerm;57915;47.174;14.680;2023-11-22T00:51:06;42.37;39.62;45.63;;
70454;Laerm;57915;47.174;14.680;2023-11-22T00:52:08;41.26;38.58;46.05;;
70454;Laerm;57915;47.174;14.680;2023-11-22T00:53:09;40.98;38.35;43.86;;
70454;Laerm;57915;47.174;14.680;2023-11-22T00:54:10;42.28;39.41;48.45;;
70454;Laerm;57915;47.174;14.680;2023-11-22T00:55:11;43.27;40.58;45.96;;
70454;Laerm;57915;47.174;14.680;2023-11-22T00:56:12;43.54;40.29;47.54;;
70454;Laerm;57915;47.174;14.680;2023-11-22T00:57:13;45.76;42.23;51.79;;
70454;Laerm;57915;47.174;14.680;2023-11-22T00:58:14;52.16;47.66;61.98;;
70454;Laerm;57915;47.174;14.680;2023-11-22T00:59:14;45.40;40.83;52.08;;
70454;Laerm;57915;47.174;14.680;2023-11-22T01:00:17;42.64;39.55;45.51;;
70454;Laerm;57915;47.174;14.680;2023-11-22T01:01:18;41.54;38.84;43.77;;
70454;Laerm;57915;47.174;14.680;2023-11-22T01:02:19;39.93;36.61;43.22;;
70454;Laerm;57915;47.174;14.680;2023-11-22T01:03:20;39.01;36.42;41.44;;
70454;Laerm;57915;47.174;14.680;2023-11-22T01:04:21;40.01;37.06;42.67;;
70454;Laerm;57915;47.174;14.680;2023-11-22T01:05:21;41.63;39.11;44.02;;
70454;Laerm;57915;47.174;14.680;2023-11-22T01:06:24;41.69;39.00;44.11;;
70454;Laerm;57915;47.174;14.680;2023-11-22T01:07:25;40.64;36.47;45.62;;
70454;Laerm;57915;47.174;14.680;2023-11-22T01:08:26;40.30;37.80;42.92;;
70454;Laerm;57915;47.174;14.680;2023-11-22T01:09:26;40.74;37.64;44.94;;
70454;Laerm;57915;47.174;14.680;2023-11-22T01:10:28;39.96;37.21;43.16;;
70454;Laerm;57915;47.174;14.680;2023-11-22T01:11:30;39.60;36.96;42.54;;
70454;Laerm;57915;47.174;14.680;2023-11-22T01:12:30;39.35;37.36;41.29;;
70454;Laerm;57915;47.174;14.680;2023-11-22T01:13:32;39.89;37.41;42.09;;
70454;Laerm;57915;47.174;14.680;2023-11-22T01:14:32;40.82;38.46;43.71;;
70454;Laerm;57915;47.174;14.680;2023-11-22T01:15:35;51.14;38.26;59.45;;
70454;Laerm;57915;47.174;14.680;2023-11-22T01:16:36;45.60;37.13;53.94;;
70454;Laerm;57915;47.174;14.680;2023-11-22T01:17:38;57.40;37.55;67.02;;
70454;Laerm;57915;47.174;14.680;2023-11-22T01:18:38;58.65;36.00;70.74;;
70454;Laerm;57915;47.174;14.680;2023-11-22T01:19:39;41.68;36.81;52.48;;
70454;Laerm;57915;47.174;14.680;2023-11-22T01:20:40;40.03;37.44;43.40;;
70454;Laerm;57915;47.174;14.680;2023-11-22T01:21:41;40.33;37.44;43.71;;
70454;Laerm;57915;47.174;14.680;2023-11-22T01:22:42;41.06;37.61;44.44;;
70454;Laerm;57915;47.174;14.680;2023-11-22T01:23:42;47.94;40.63;54.94;;
70454;Laerm;57915;47.174;14.680;2023-11-22T01:24:45;48.42;39.36;54.56;;
70454;Laerm;57915;47.174;14.680;2023-11-22T01:25:46;41.12;38.45;43.60;;
70454;Laerm;57915;47.174;14.680;2023-11-22T01:26:46;40.39;38.15;43.97;;
70454;Laerm;57915;47.174;14.680;2023-11-22T01:27:48;40.66;37.29;43.80;;
70454;Laerm;57915;47.174;14.680;2023-11-22T01:28:48;39.95;37.36;46.58;;
70454;Laerm;57915;47.174;14.680;2023-11-22T01:29:48;44.28;38.90;52.17;;
70454;Laerm;57915;47.174;14.680;2023-11-22T01:30:52;44.52;40.71;49.64;;
70454;Laerm;57915;47.174;14.680;2023-11-22T01:31:52;41.41;38.74;44.76;;
70454;Laerm;57915;47.174;14.680;2023-11-22T01:32:54;41.49;38.92;47.42;;
70454;Laerm;57915;47.174;14.680;2023-11-22T01:33:55;41.51;38.43;45.63;;
70454;Laerm;57915;47.174;14.680;2023-11-22T01:34:56;40.39;37.40;43.28;;
70454;Laerm;57915;47.174;14.680;2023-11-22T01:35:59;39.59;37.48;41.44;;
70454;Laerm;57915;47.174;14.680;2023-11-22T01:37:00;41.73;36.99;50.64;;
70454;Laerm;57915;47.174;14.680;2023-11-22T01:38:00;40.39;37.36;45.04;;
70454;Laerm;57915;47.174;14.680;2023-11-22T01:39:04;41.60;39.07;43.91;;
70454;Laerm;57915;47.174;14.680;2023-11-22T01:40:05;40.78;38.29;44.16;;
70454;Laerm;57915;47.174;14.680;2023-11-22T01:41:08;40.85;38.61;43.57;;
70454;Laerm;57915;47.174;14.680;2023-11-22T01:42:08;41.22;38.35;44.26;;
70454;Laerm;57915;47.174;14.680;2023-11-22T01:43:12;40.18;37.58;42.89;;
70454;Laerm;57915;47.174;14.680;2023-11-22T01:44:13;40.25;37.46;43.05;;
70454;Laerm;57915;47.174;14.680;2023-11-22T01:45:14;47.99;39.29;54.34;;
70454;Laerm;57915;47.174;14.680;2023-11-22T01:46:17;47.23;35.75;53.91;;
70454;Laerm;57915;47.174;14.680;2023-11-22T01:47:23;37.70;35.10;42.36;;
70454;Laerm;57915;47.174;14.680;2023-11-22T01:48:24;37.95;34.59;40.58;;
70454;Laerm;57915;47.174;14.680;2023-11-22T01:49:25;57.06;34.71;71.07;;
70454;Laerm;57915;47.174;14.680;2023-11-22T01:50:27;37.67;35.10;41.23;;
70454;Laerm;57915;47.174;14.680;2023-11-22T01:51:27;38.06;35.40;41.86;;
70454;Laerm;57915;47.174;14.680;2023-11-22T01:52:29;39.43;36.93;42.23;;
70454;Laerm;57915;47.174;14.680;2023-11-22T01:53:30;40.36;37.73;45.52;;
70454;Laerm;57915;47.174;14.680;2023-11-22T01:54:32;39.81;37.23;43.71;;
70454;Laerm;57915;47.174;14.680;2023-11-22T01:55:33;40.11;37.59;42.55;;
70454;Laerm;57915;47.174;14.680;2023-11-22T01:56:35;59.83;39.14;74.60;;
70454;Laerm;57915;47.174;14.680;2023-11-22T01:57:37;52.87;38.79;65.30;;
70454;Laerm;57915;47.174;14.680;2023-11-22T01:58:38;42.00;39.39;44.49;;
70454;Laerm;57915;47.174;14.680;2023-11-22T01:59:39;40.31;37.72;43.40;;
70454;Laerm;57915;47.174;14.680;2023-11-22T02:00:42;39.46;37.16;43.37;;
70454;Laerm;57915;47.174;14.680;2023-11-22T02:01:45;39.44;36.86;45.14;;
70454;Laerm;57915;47.174;14.680;2023-11-22T02:02:46;39.17;36.42;42.60;;
70454;Laerm;57915;47.174;14.680;2023-11-22T02:03:47;62.24;36.20;77.14;;
70454;Laerm;57915;47.174;14.680;2023-11-22T02:04:47;38.31;35.49;41.46;;
70454;Laerm;57915;47.174;14.680;2023-11-22T02:05:50;38.94;36.03;43.45;;
70454;Laerm;57915;47.174;14.680;2023-11-22T02:06:50;39.04;36.31;41.99;;
70454;Laerm;57915;47.174;14.680;2023-11-22T02:07:51;40.61;38.31;42.82;;
70454;Laerm;57915;47.174;14.680;2023-11-22T02:08:53;47.95;37.53;58.16;;
70454;Laerm;57915;47.174;14.680;2023-11-22T02:09:53;50.14;40.39;61.40;;
70454;Laerm;57915;47.174;14.680;2023-11-22T02:10:59;41.06;38.17;44.41;;
70454;Laerm;57915;47.174;14.680;2023-11-22T02:12:00;41.01;37.89;43.79;;
70454;Laerm;57915;47.174;14.680;2023-11-22T02:13:01;41.23;38.12;43.60;;
70454;Laerm;57915;47.174;14.680;2023-11-22T02:14:04;41.13;38.83;43.49;;
70454;Laerm;57915;47.174;14.680;2023-11-22T02:15:07;41.48;38.78;45.03;;
70454;Laerm;57915;47.174;14.680;2023-11-22T02:16:09;40.72;38.10;42.98;;
70454;Laerm;57915;47.174;14.680;2023-11-22T02:17:10;46.83;37.22;56.63;;
70454;Laerm;57915;47.174;14.680;2023-11-22T02:18:12;47.35;37.90;58.10;;
70454;Laerm;57915;47.174;14.680;2023-11-22T02:19:14;39.54;36.99;44.84;;
70454;Laerm;57915;47.174;14.680;2023-11-22T02:20:15;39.02;37.06;41.31;;
70454;Laerm;57915;47.174;14.680;2023-11-22T02:21:16;38.72;36.42;40.98;;
70454;Laerm;57915;47.174;14.680;2023-11-22T02:22:18;39.53;37.04;41.79;;
70454;Laerm;57915;47.174;14.680;2023-11-22T02:23:19;40.83;38.14;43.36;;
70454;Laerm;57915;47.174;14.680;2023-11-22T02:24:21;41.92;39.20;44.27;;
70454;Laerm;57915;47.174;14.680;2023-11-22T02:25:22;41.82;39.50;44.37;;
70454;Laerm;57915;47.174;14.680;2023-11-22T02:26:23;41.46;39.26;43.97;;
70454;Laerm;57915;47.174;14.680;2023-11-22T02:27:24;40.25;37.74;43.22;;
70454;Laerm;57915;47.174;14.680;2023-11-22T02:28:26;41.89;38.85;44.83;;
70454;Laerm;57915;47.174;14.680;2023-11-22T02:29:26;55.58;40.46;68.05;;
70454;Laerm;57915;47.174;14.680;2023-11-22T02:30:29;42.40;39.90;47.28;;
70454;Laerm;57915;47.174;14.680;2023-11-22T02:31:29;43.24;39.52;45.91;;
70454;Laerm;57915;47.174;14.680;2023-11-22T02:32:30;44.21;40.29;50.21;;
70454;Laerm;57915;47.174;14.680;2023-11-22T02:33:31;49.21;40.23;55.08;;
70454;Laerm;57915;47.174;14.680;2023-11-22T02:34:32;41.50;39.22;45.01;;
70454;Laerm;57915;47.174;14.680;2023-11-22T02:35:33;41.98;39.38;44.87;;
70454;Laerm;57915;47.174;14.680;2023-11-22T02:36:34;40.78;38.01;42.91;;
70454;Laerm;57915;47.174;14.680;2023-11-22T02:37:35;41.81;39.07;44.57;;
70454;Laerm;57915;47.174;14.680;2023-11-22T02:38:37;42.09;39.49;44.48;;
70454;Laerm;57915;47.174;14.680;2023-11-22T02:39:41;41.78;39.37;44.40;;
70454;Laerm;57915;47.174;14.680;2023-11-22T02:40:45;42.04;39.41;44.56;;
70454;Laerm;57915;47.174;14.680;2023-11-22T02:41:46;41.46;38.13;49.09;;
70454;Laerm;57915;47.174;14.680;2023-11-22T02:42:48;41.23;37.79;47.84;;
70454;Laerm;57915;47.174;14.680;2023-11-22T02:43:50;42.00;39.33;45.64;;
70454;Laerm;57915;47.174;14.680;2023-11-22T02:44:50;43.97;40.51;49.53;;
70454;Laerm;57915;47.174;14.680;2023-11-22T02:45:52;46.42;40.81;51.39;;
70454;Laerm;57915;47.174;14.680;2023-11-22T02:46:53;43.02;39.00;46.88;;
70454;Laerm;57915;47.174;14.680;2023-11-22T02:47:54;42.80;40.05;45.86;;
70454;Laerm;57915;47.174;14.680;2023-11-22T02:48:55;43.11;40.40;45.34;;
70454;Laerm;57915;47.174;14.680;2023-11-22T02:49:57;42.52;40.13;45.12;;
70454;Laerm;57915;47.174;14.680;2023-11-22T02:50:57;55.29;37.45;67.90;;
70454;Laerm;57915;47.174;14.680;2023-11-22T02:51:57;42.81;37.68;52.65;;
70454;Laerm;57915;47.174;14.680;2023-11-22T02:52:59;54.27;36.75;66.42;;
70454;Laerm;57915;47.174;14.680;2023-11-22T02:54:01;40.19;37.44;43.75;;
70454;Laerm;57915;47.174;14.680;2023-11-22T02:55:02;39.94;37.56;45.34;;
70454;Laerm;57915;47.174;14.680;2023-11-22T02:56:03;39.38;36.94;41.94;;
70454;Laerm;57915;47.174;14.680;2023-11-22T02:57:05;38.35;36.18;40.38;;
70454;Laerm;57915;47.174;14.680;2023-11-22T02:58:05;39.50;36.51;41.98;;
70454;Laerm;57915;47.174;14.680;2023-11-22T02:59:06;41.21;37.53;44.72;;
70454;Laerm;57915;47.174;14.680;2023-11-22T03:00:13;40.47;38.01;43.08;;
70454;Laerm;57915;47.174;14.680;2023-11-22T03:01:14;40.45;37.23;45.68;;
70454;Laerm;57915;47.174;14.680;2023-11-22T03:02:16;42.11;38.48;49.63;;
70454;Laerm;57915;47.174;14.680;2023-11-22T03:03:17;42.38;39.77;45.42;;
70454;Laerm;57915;47.174;14.680;2023-11-22T03:04:17;42.44;39.41;45.02;;
70454;Laerm;57915;47.174;14.680;2023-11-22T03:05:19;42.26;39.78;44.82;;
70454;Laerm;57915;47.174;14.680;2023-11-22T03:06:19;41.76;39.48;44.23;;
70454;Laerm;57915;47.174;14.680;2023-11-22T03:07:21;43.76;40.90;48.81;;
70454;Laerm;57915;47.174;14.680;2023-11-22T03:08:21;42.26;39.05;45.39;;
70454;Laerm;57915;47.174;14.680;2023-11-22T03:09:24;61.14;42.28;72.35;;
70454;Laerm;57915;47.174;14.680;2023-11-22T03:10:26;60.30;39.92;71.07;;
70454;Laerm;57915;47.174;14.680;2023-11-22T03:11:27;41.27;38.83;43.80;;
70454;Laerm;57915;47.174;14.680;2023-11-22T03:12:28;55.39;39.04;68.46;;
70454;Laerm;57915;47.174;14.680;2023-11-22T03:13:29;58.79;42.22;69.44;;
70454;Laerm;57915;47.174;14.680;2023-11-22T03:14:29;63.16;38.96;76.41;;
70454;Laerm;57915;47.174;14.680;2023-11-22T03:15:30;40.24;37.65;42.86;;
70454;Laerm;57915;47.174;14.680;2023-11-22T03:16:32;55.17;37.76;68.07;;
70454;Laerm;57915;47.174;14.680;2023-11-22T03:17:33;55.97;40.62;69.70;;
70454;Laerm;57915;47.174;14.680;2023-11-22T03:18:34;43.76;41.39;47.00;;
70454;Laerm;57915;47.174;14.680;2023-11-22T03:19:36;52.92;45.28;59.10;;
70454;Laerm;57915;47.174;14.680;2023-11-22T03:20:37;58.50;43.99;69.48;;
70454;Laerm;57915;47.174;14.680;2023-11-22T03:21:38;57.86;41.70;68.29;;
70454;Laerm;57915;47.174;14.680;2023-11-22T03:22:39;43.80;40.73;48.50;;
70454;Laerm;57915;47.174;14.680;2023-11-22T03:23:40;44.81;40.85;50.44;;
70454;Laerm;57915;47.174;14.680;2023-11-22T03:24:43;44.26;40.33;49.11;;
70454;Laerm;57915;47.174;14.680;2023-11-22T03:25:43;53.71;38.89;69.32;;
70454;Laerm;57915;47.174;14.680;2023-11-22T03:26:44;55.40;39.25;73.22;;
70454;Laerm;57915;47.174;14.680;2023-11-22T03:27:45;42.03;38.34;45.39;;
70454;Laerm;57915;47.174;14.680;2023-11-22T03:28:47;41.43;38.30;45.18;;
70454;Laerm;57915;47.174;14.680;2023-11-22T03:29:47;43.05;39.37;52.14;;
70454;Laerm;57915;47.174;14.680;2023-11-22T03:30:48;43.43;40.33;46.26;;
70454;Laerm;57915;47.174;14.680;2023-11-22T03:31:50;42.80;39.85;45.49;;
70454;Laerm;57915;47.174;14.680;2023-11-22T03:32:50;56.17;40.80;69.87;;
70454;Laerm;57915;47.174;14.680;2023-11-22T03:33:51;42.92;40.70;48.39;;
70454;Laerm;57915;47.174;14.680;2023-11-22T03:34:52;43.61;40.71;46.92;;
70454;Laerm;57915;47.174;14.680;2023-11-22T03:35:52;57.03;41.31;68.25;;
70454;Laerm;57915;47.174;14.680;2023-11-22T03:36:54;57.91;40.77;67.80;;
70454;Laerm;57915;47.174;14.680;2023-11-22T03:37:54;57.25;44.39;67.92;;
70454;Laerm;57915;47.174;14.680;2023-11-22T03:38:56;43.33;39.86;46.44;;
70454;Laerm;57915;47.174;14.680;2023-11-22T03:39:57;56.63;40.90;67.30;;
70454;Laerm;57915;47.174;14.680;2023-11-22T03:40:59;42.14;39.71;45.45;;
70454;Laerm;57915;47.174;14.680;2023-11-22T03:41:59;54.23;40.28;67.43;;
70454;Laerm;57915;47.174;14.680;2023-11-22T03:43:01;51.86;38.82;64.78;;
70454;Laerm;57915;47.174;14.680;2023-11-22T03:44:01;47.69;39.64;64.97;;
70454;Laerm;57915;47.174;14.680;2023-11-22T03:45:03;57.21;40.92;69.50;;
70454;Laerm;57915;47.174;14.680;2023-11-22T03:46:03;55.67;39.40;70.29;;
70454;Laerm;57915;47.174;14.680;2023-11-22T03:47:05;43.01;40.58;46.41;;
70454;Laerm;57915;47.174;14.680;2023-11-22T03:48:06;42.04;38.67;50.20;;
70454;Laerm;57915;47.174;14.680;2023-11-22T03:49:08;42.44;38.39;51.72;;
70454;Laerm;57915;47.174;14.680;2023-11-22T03:50:08;54.81;41.99;69.46;;
70454;Laerm;57915;47.174;14.680;2023-11-22T03:51:10;48.86;41.30;55.17;;
70454;Laerm;57915;47.174;14.680;2023-11-22T03:52:10;53.80;39.21;64.88;;
70454;Laerm;57915;47.174;14.680;2023-11-22T03:53:12;47.81;39.76;58.67;;
70454;Laerm;57915;47.174;14.680;2023-11-22T03:54:12;43.13;39.22;50.12;;
70454;Laerm;57915;47.174;14.680;2023-11-22T03:55:15;53.83;38.45;67.29;;
70454;Laerm;57915;47.174;14.680;2023-11-22T03:56:16;59.43;39.26;73.83;;
70454;Laerm;57915;47.174;14.680;2023-11-22T03:57:17;44.97;39.83;51.59;;
70454;Laerm;57915;47.174;14.680;2023-11-22T03:58:17;43.30;37.94;51.10;;
70454;Laerm;57915;47.174;14.680;2023-11-22T03:59:19;41.58;39.02;44.70;;
70454;Laerm;57915;47.174;14.680;2023-11-22T04:00:19;55.59;38.99;67.23;;
70454;Laerm;57915;47.174;14.680;2023-11-22T04:01:21;61.24;45.62;71.61;;
70454;Laerm;57915;47.174;14.680;2023-11-22T04:02:21;44.69;39.83;58.61;;
70454;Laerm;57915;47.174;14.680;2023-11-22T04:03:23;45.73;40.35;52.23;;
70454;Laerm;57915;47.174;14.680;2023-11-22T04:04:23;55.37;39.50;68.75;;
70454;Laerm;57915;47.174;14.680;2023-11-22T04:05:25;56.80;38.94;70.88;;
70454;Laerm;57915;47.174;14.680;2023-11-22T04:06:25;42.12;38.64;53.18;;
70454;Laerm;57915;47.174;14.680;2023-11-22T04:07:27;41.00;38.19;44.24;;
70454;Laerm;57915;47.174;14.680;2023-11-22T04:08:28;54.86;38.73;67.67;;
70454;Laerm;57915;47.174;14.680;2023-11-22T04:09:30;39.85;37.51;43.64;;
70454;Laerm;57915;47.174;14.680;2023-11-22T04:10:32;42.10;37.89;45.93;;
70454;Laerm;57915;47.174;14.680;2023-11-22T04:11:33;57.88;41.68;69.50;;
70454;Laerm;57915;47.174;14.680;2023-11-22T04:12:34;60.57;40.78;71.37;;
70454;Laerm;57915;47.174;14.680;2023-11-22T04:13:36;58.37;41.46;71.95;;
70454;Laerm;57915;47.174;14.680;2023-11-22T04:14:37;61.57;43.17;73.14;;
70454;Laerm;57915;47.174;14.680;2023-11-22T04:15:38;62.67;43.91;72.22;;
70454;Laerm;57915;47.174;14.680;2023-11-22T04:16:38;54.29;40.85;66.51;;
70454;Laerm;57915;47.174;14.680;2023-11-22T04:17:40;60.54;44.98;70.30;;
70454;Laerm;57915;47.174;14.680;2023-11-22T04:18:41;58.81;43.13;67.46;;
70454;Laerm;57915;47.174;14.680;2023-11-22T04:19:43;57.95;42.77;68.59;;
70454;Laerm;57915;47.174;14.680;2023-11-22T04:20:43;63.55;44.92;73.70;;
70454;Laerm;57915;47.174;14.680;2023-11-22T04:21:46;56.04;40.38;67.96;;
70454;Laerm;57915;47.174;14.680;2023-11-22T04:22:46;59.68;40.98;70.60;;
70454;Laerm;57915;47.174;14.680;2023-11-22T04:23:47;49.51;41.53;60.67;;
70454;Laerm;57915;47.174;14.680;2023-11-22T04:24:48;52.64;40.56;64.08;;
70454;Laerm;57915;47.174;14.680;2023-11-22T04:25:50;60.76;41.64;72.33;;
70454;Laerm;57915;47.174;14.680;2023-11-22T04:26:50;46.12;41.01;58.31;;
70454;Laerm;57915;47.174;14.680;2023-11-22T04:27:52;51.35;40.08;66.64;;
70454;Laerm;57915;47.174;14.680;2023-11-22T04:28:53;57.85;40.05;69.23;;
70454;Laerm;57915;47.174;14.680;2023-11-22T04:29:54;60.16;41.36;73.25;;
70454;Laerm;57915;47.174;14.680;2023-11-22T04:30:55;59.38;44.40;69.80;;
70454;Laerm;57915;47.174;14.680;2023-11-22T04:31:55;61.73;42.18;72.48;;
70454;Laerm;57915;47.174;14.680;2023-11-22T04:32:57;59.93;46.38;69.91;;
70454;Laerm;57915;47.174;14.680;2023-11-22T04:33:57;62.62;50.21;70.27;;
70454;Laerm;57915;47.174;14.680;2023-11-22T04:35:00;57.70;41.03;69.59;;
70454;Laerm;57915;47.174;14.680;2023-11-22T04:36:00;44.60;40.93;53.73;;
70454;Laerm;57915;47.174;14.680;2023-11-22T04:37:02;62.56;42.17;73.71;;
70454;Laerm;57915;47.174;14.680;2023-11-22T04:38:03;60.90;43.43;69.57;;
70454;Laerm;57915;47.174;14.680;2023-11-22T04:39:04;56.45;44.77;67.10;;
70454;Laerm;57915;47.174;14.680;2023-11-22T04:40:07;64.40;48.17;71.51;;
70454;Laerm;57915;47.174;14.680;2023-11-22T04:41:09;62.08;41.90;71.72;;
70454;Laerm;57915;47.174;14.680;2023-11-22T04:42:11;58.99;43.80;69.05;;
70454;Laerm;57915;47.174;14.680;2023-11-22T04:43:11;59.34;42.49;72.52;;
70454;Laerm;57915;47.174;14.680;2023-11-22T04:44:13;45.93;42.72;49.89;;
70454;Laerm;57915;47.174;14.680;2023-11-22T04:45:13;56.64;41.57;70.44;;
70454;Laerm;57915;47.174;14.680;2023-11-22T04:46:15;59.79;41.81;71.46;;
70454;Laerm;57915;47.174;14.680;2023-11-22T04:47:15;56.25;40.76;69.11;;
70454;Laerm;57915;47.174;14.680;2023-11-22T04:48:16;62.33;41.54;73.56;;
70454;Laerm;57915;47.174;14.680;2023-11-22T04:49:17;57.39;42.37;71.96;;
70454;Laerm;57915;47.174;14.680;2023-11-22T04:50:18;51.79;40.89;67.87;;
70454;Laerm;57915;47.174;14.680;2023-11-22T04:51:18;55.02;39.94;67.24;;
70454;Laerm;57915;47.174;14.680;2023-11-22T04:52:20;42.83;38.64;49.44;;
70454;Laerm;57915;47.174;14.680;2023-11-22T04:53:20;43.38;39.72;49.08;;
70454;Laerm;57915;47.174;14.680;2023-11-22T04:54:20;42.52;38.40;49.20;;
70454;Laerm;57915;47.174;14.680;2023-11-22T04:55:22;60.86;40.02;70.19;;
70454;Laerm;57915;47.174;14.680;2023-11-22T04:56:24;59.01;39.38;69.54;;
70454;Laerm;57915;47.174;14.680;2023-11-22T04:57:26;56.49;40.93;68.94;;
70454;Laerm;57915;47.174;14.680;2023-11-22T04:58:26;57.12;37.75;69.49;;
70454;Laerm;57915;47.174;14.680;2023-11-22T04:59:27;45.57;39.81;51.67;;
70454;Laerm;57915;47.174;14.680;2023-11-22T05:00:28;53.65;40.48;69.12;;
70454;Laerm;57915;47.174;14.680;2023-11-22T05:01:31;58.00;43.81;71.43;;
70454;Laerm;57915;47.174;14.680;2023-11-22T05:02:32;56.26;39.67;68.77;;
70454;Laerm;57915;47.174;14.680;2023-11-22T05:03:33;60.92;39.40;71.78;;
70454;Laerm;57915;47.174;14.680;2023-11-22T05:04:34;46.36;39.62;58.94;;
70454;Laerm;57915;47.174;14.680;2023-11-22T05:05:35;60.01;42.31;71.38;;
70454;Laerm;57915;47.174;14.680;2023-11-22T05:06:36;60.94;42.71;70.80;;
70454;Laerm;57915;47.174;14.680;2023-11-22T05:07:36;59.14;41.91;71.73;;
70454;Laerm;57915;47.174;14.680;2023-11-22T05:08:38;61.47;42.17;71.22;;
70454;Laerm;57915;47.174;14.680;2023-11-22T05:09:38;58.66;46.93;71.67;;
70454;Laerm;57915;47.174;14.680;2023-11-22T05:10:39;58.68;44.00;68.31;;
70454;Laerm;57915;47.174;14.680;2023-11-22T05:11:42;60.24;41.73;70.45;;
70454;Laerm;57915;47.174;14.680;2023-11-22T05:12:42;59.21;42.94;70.34;;
70454;Laerm;57915;47.174;14.680;2023-11-22T05:13:44;59.12;40.66;71.49;;
70454;Laerm;57915;47.174;14.680;2023-11-22T05:14:44;59.21;41.29;71.88;;
70454;Laerm;57915;47.174;14.680;2023-11-22T05:15:46;57.01;41.32;69.80;;
70454;Laerm;57915;47.174;14.680;2023-11-22T05:16:47;59.09;44.14;74.33;;
70454;Laerm;57915;47.174;14.680;2023-11-22T05:17:49;60.35;44.35;68.29;;
70454;Laerm;57915;47.174;14.680;2023-11-22T05:18:49;61.85;42.84;71.09;;
70454;Laerm;57915;47.174;14.680;2023-11-22T05:19:50;57.43;43.03;70.00;;
70454;Laerm;57915;47.174;14.680;2023-11-22T05:20:51;56.59;44.42;68.05;;
70454;Laerm;57915;47.174;14.680;2023-11-22T05:21:52;50.71;45.22;58.65;;
70454;Laerm;57915;47.174;14.680;2023-11-22T05:22:53;61.88;45.07;75.42;;
70454;Laerm;57915;47.174;14.680;2023-11-22T05:23:54;58.00;42.40;68.22;;
70454;Laerm;57915;47.174;14.680;2023-11-22T05:24:54;57.85;44.22;70.37;;
70454;Laerm;57915;47.174;14.680;2023-11-22T05:25:56;58.95;48.52;69.98;;
70454;Laerm;57915;47.174;14.680;2023-11-22T05:26:58;59.90;46.59;72.67;;
70454;Laerm;57915;47.174;14.680;2023-11-22T05:27:59;51.99;43.02;64.49;;
70454;Laerm;57915;47.174;14.680;2023-11-22T05:29:00;60.71;47.73;76.12;;
70454;Laerm;57915;47.174;14.680;2023-11-22T05:30:00;60.49;45.28;71.75;;
70454;Laerm;57915;47.174;14.680;2023-11-22T05:31:01;52.03;42.04;66.08;;
70454;Laerm;57915;47.174;14.680;2023-11-22T05:32:02;59.46;45.18;69.74;;
70454;Laerm;57915;47.174;14.680;2023-11-22T05:33:04;58.62;43.10;69.21;;
70454;Laerm;57915;47.174;14.680;2023-11-22T05:34:04;60.22;43.77;69.25;;
70454;Laerm;57915;47.174;14.680;2023-11-22T05:35:05;62.98;48.25;71.95;;
70454;Laerm;57915;47.174;14.680;2023-11-22T05:36:10;58.71;42.40;67.86;;
70454;Laerm;57915;47.174;14.680;2023-11-22T05:37:11;62.51;45.81;71.87;;